Terminal Aerodrome Forecast
Issued by NWS

Home | Current Version | Previous Version | Graphics & Text | Print | Product List | Glossary On
Versions: 1 2 3 4 5 6 7 8 9 10 11
524
FTUS43 KMPX 180520
TAFRWF
TAF
KRWF 180520Z 1806/1906 24012KT P6SM SKC
     FM180900 24011KT P6SM BKN150
     FM181200 24010KT P6SM SKC=

USA.gov is the U.S. government's official web portal to all federal, state and local government web resources and services.